Main page
METAR-TAF:

METAR-TAF

Airports :

Bétera-Valencia

Valencia, Spain

latitude: 39-37-26N, longitude: 0-28-26W, elevation: 127 m

Current weather observation

The report was made 28 minutes ago, at 14:00 UTC
Wind 8 kt from the East, varying between Northeast and Southeast
Temperature 18°C
Humidity 83%
Pressure 1022 hPa
Visibility 10 km or more

METAR: LEBT 141400Z AUTO 09008KT 050V130 9999 FEW019/// 18/15 Q1022

Time: 15:28 (14:28 UTC)


TAF: missing

Weather observations and forecasts of more than 4000 airports (METAR and TAF reports).

The available stations are represented by yellow and red dots on the map.

Hover mouse over dot to see the name of the station.

Then click to see weather observations and forecasts.

To change the map : click on the green buttons with a black cross to zoom in, on the green button with a dash to zoom out, or on the green arrows for adjacent maps.


METAR-TAF: